Time;durP1;ratioP1;P1;durP2;ratioP2;P2;SDS_P1;SDS_P2;PMS_P1;PMS_P2;Temp;Humidity;BMP_temperature;BMP_pressure;BME280_temperature;BME280_humidity;BME280_pressure;Samples;Min_cycle;Max_cycle;Signal;HPM_P1;HPM_P2
2022/08/12 00:43:15;;;;;;;;;;;17.00;96.30;;;;;;5086245;28;19954;-60
2022/08/12 00:48:26;;;;;;;;;;;16.90;96.50;;;;;;5081310;28;20310;-58
2022/08/12 00:50:53;;;;;;;;;;;16.80;96.80;;;;;;5082779;28;19935;-59
2022/08/12 00:53:19;;;;;;;;;;;16.80;97.00;;;;;;5087593;28;19928;-58
2022/08/12 00:55:45;;;;;;;;;;;16.80;97.70;;;;;;5086834;28;19932;-58
2022/08/12 00:58:15;;;;;;;;;;;16.70;97.50;;;;;;5085037;28;19920;-58
2022/08/12 01:00:41;;;;;;;;;;;16.70;97.70;;;;;;5083531;28;19966;-58
2022/08/12 01:03:09;;;;;;;;;;;16.60;97.20;;;;;;5082748;28;20018;-59
2022/08/12 01:11:27;;;;;;;;;;;16.60;97.60;;;;;;5050581;28;19921;-59
2022/08/12 01:13:54;;;;;;;;;;;16.50;97.90;;;;;;5084975;28;19945;-59
2022/08/12 01:16:22;;;;;;;;;;;16.50;98.00;;;;;;5083156;28;19920;-59
2022/08/12 01:18:50;;;;;;;;;;;16.40;97.90;;;;;;5085406;28;19928;-58
2022/08/12 01:21:25;;;;;;;;;;;16.40;98.50;;;;;;5087524;28;19963;-60
2022/08/12 01:24:06;;;;;;;;;;;16.40;98.80;;;;;;5089195;28;19920;-60
2022/08/12 01:26:32;;;;;;;;;;;16.40;99.40;;;;;;5091047;28;19920;-58
2022/08/12 01:28:58;;;;;;;;;;;16.40;99.40;;;;;;5088492;28;19966;-59
2022/08/12 01:31:25;;;;;;;;;;;16.40;99.60;;;;;;5092206;28;19964;-59
2022/08/12 01:34:09;;;;;;;;;;;16.30;99.20;;;;;;5085393;28;19924;-59
2022/08/12 01:36:35;;;;;;;;;;;16.30;98.60;;;;;;5089773;28;19965;-58
2022/08/12 01:39:01;;;;;;;;;;;16.30;99.20;;;;;;5089635;28;20330;-59
2022/08/12 01:41:30;;;;;;;;;;;16.30;99.40;;;;;;5091236;28;19985;-59
2022/08/12 01:44:02;;;;;;;;;;;16.30;99.90;;;;;;5106100;28;19920;-59
2022/08/12 01:46:35;;;;;;;;;;;16.30;99.90;;;;;;5120371;27;20306;-58
2022/08/12 01:49:06;;;;;;;;;;;16.20;99.90;;;;;;5088983;28;19926;-59
2022/08/12 01:51:41;;;;;;;;;;;16.20;99.60;;;;;;5087395;28;20023;-58
2022/08/12 01:54:08;;;;;;;;;;;16.20;99.90;;;;;;5090493;28;19924;-60
2022/08/12 01:56:41;;;;;;;;;;;16.10;99.90;;;;;;5089160;28;19926;-60
2022/08/12 02:01:52;;;;;;;;;;;16.00;99.90;;;;;;5088055;28;19928;-60
2022/08/12 02:13:08;;;;;;;;;;;16.00;99.90;;;;;;5087357;28;19924;-59
2022/08/12 02:15:40;;;;;;;;;;;16.00;99.90;;;;;;5086290;28;19927;-59
2022/08/12 02:18:21;;;;;;;;;;;15.90;99.90;;;;;;5083918;28;19932;-59
2022/08/12 02:20:59;;;;;;;;;;;15.90;99.90;;;;;;5085116;28;19924;-58
2022/08/12 02:23:25;;;;;;;;;;;15.90;99.90;;;;;;5087427;28;19951;-59
2022/08/12 02:25:53;;;;;;;;;;;15.90;99.90;;;;;;5082759;28;19920;-58
2022/08/12 02:28:19;;;;;;;;;;;15.90;99.90;;;;;;5087770;28;19938;-60
2022/08/12 02:30:44;;;;;;;;;;;15.80;99.90;;;;;;5087897;28;19924;-58
2022/08/12 02:33:10;;;;;;;;;;;15.80;99.90;;;;;;5091028;28;19920;-58
2022/08/12 02:35:38;;;;;;;;;;;15.80;99.90;;;;;;5086740;28;20391;-59
2022/08/12 02:38:07;;;;;;;;;;;15.80;99.90;;;;;;5082239;28;20356;-59
2022/08/12 02:40:34;;;;;;;;;;;15.70;99.90;;;;;;5088666;28;19920;-59
2022/08/12 02:43:26;;;;;;;;;;;15.70;99.90;;;;;;5088894;28;19924;-58
2022/08/12 02:46:05;;;;;;;;;;;15.70;99.90;;;;;;5074912;28;19924;-58
2022/08/12 02:49:00;;;;;;;;;;;15.70;99.90;;;;;;5087353;28;19920;-59
2022/08/12 02:51:30;;;;;;;;;;;15.60;99.90;;;;;;5065818;28;20287;-58
2022/08/12 02:53:59;;;;;;;;;;;15.60;99.90;;;;;;5080683;28;19930;-58
2022/08/12 02:56:27;;;;;;;;;;;15.60;99.90;;;;;;5087798;28;20436;-59
2022/08/12 02:58:53;;;;;;;;;;;15.60;99.90;;;;;;5086605;28;19927;-59
2022/08/12 03:01:21;;;;;;;;;;;15.60;99.90;;;;;;5088866;28;19954;-58
2022/08/12 03:03:48;;;;;;;;;;;15.50;99.90;;;;;;5085864;28;19977;-59
2022/08/12 03:06:15;;;;;;;;;;;15.50;99.90;;;;;;5082212;28;20006;-60
2022/08/12 03:08:42;;;;;;;;;;;15.60;99.90;;;;;;5084314;28;19969;-58
2022/08/12 03:11:16;;;;;;;;;;;15.60;99.90;;;;;;5085149;28;20264;-58
2022/08/12 03:13:44;;;;;;;;;;;15.50;99.90;;;;;;5087481;28;19935;-60
2022/08/12 03:16:10;;;;;;;;;;;15.50;99.90;;;;;;5093030;28;20267;-60
2022/08/12 03:18:36;;;;;;;;;;;15.50;99.90;;;;;;5087931;28;19921;-60
2022/08/12 03:21:02;;;;;;;;;;;15.50;99.90;;;;;;5085703;28;20019;-58
2022/08/12 03:23:28;;;;;;;;;;;15.40;99.90;;;;;;5083967;28;20489;-58
2022/08/12 03:25:55;;;;;;;;;;;15.50;99.90;;;;;;5083881;28;19944;-60
2022/08/12 03:31:06;;;;;;;;;;;15.50;99.90;;;;;;5089687;28;19920;-60
2022/08/12 03:33:36;;;;;;;;;;;15.50;99.90;;;;;;5119276;27;19920;-59
2022/08/12 03:36:03;;;;;;;;;;;15.50;99.90;;;;;;5083151;28;19924;-60
2022/08/12 03:38:31;;;;;;;;;;;15.40;99.90;;;;;;5084144;28;20529;-59
2022/08/12 04:00:27;;;;;;;;;;;15.10;99.90;;;;;;5087858;28;20479;-58
2022/08/12 04:03:01;;;;;;;;;;;15.10;99.90;;;;;;5079321;28;19969;-59
2022/08/12 04:05:28;;;;;;;;;;;15.10;99.90;;;;;;5080879;28;19931;-59
2022/08/12 04:07:54;;;;;;;;;;;15.10;99.90;;;;;;5086647;28;19924;-60
2022/08/12 04:10:20;;;;;;;;;;;15.00;99.90;;;;;;5087613;28;19931;-58
2022/08/12 04:15:42;;;;;;;;;;;15.00;99.90;;;;;;5083861;28;19924;-58
2022/08/12 04:18:08;;;;;;;;;;;15.00;99.90;;;;;;5084594;28;19920;-59
2022/08/12 04:20:34;;;;;;;;;;;15.00;99.90;;;;;;5085466;28;20091;-59
2022/08/12 04:23:00;;;;;;;;;;;14.90;99.90;;;;;;5085253;28;19928;-60
2022/08/12 04:25:25;;;;;;;;;;;14.90;99.90;;;;;;5088687;28;20429;-58
2022/08/12 04:27:51;;;;;;;;;;;14.90;99.90;;;;;;5083545;28;20034;-59
2022/08/12 04:30:16;;;;;;;;;;;14.90;99.90;;;;;;5083454;28;19920;-59
2022/08/12 04:32:42;;;;;;;;;;;14.90;99.90;;;;;;5089068;28;19965;-59
2022/08/12 04:35:08;;;;;;;;;;;14.90;99.90;;;;;;5063206;28;19924;-60
2022/08/12 04:37:33;;;;;;;;;;;14.90;99.90;;;;;;5083673;28;20352;-60
2022/08/12 04:39:59;;;;;;;;;;;14.90;99.90;;;;;;5085988;28;19931;-57
2022/08/12 04:42:25;;;;;;;;;;;15.00;99.90;;;;;;5086442;28;20316;-59
2022/08/12 04:44:51;;;;;;;;;;;15.00;99.90;;;;;;5081629;28;20605;-60
2022/08/12 04:47:18;;;;;;;;;;;15.00;99.90;;;;;;5085635;28;19959;-58
2022/08/12 04:49:44;;;;;;;;;;;15.10;99.90;;;;;;5086256;28;19966;-59
2022/08/12 04:52:10;;;;;;;;;;;15.10;99.90;;;;;;5088569;28;19977;-59
2022/08/12 04:54:37;;;;;;;;;;;15.10;99.90;;;;;;5082632;28;20360;-59
2022/08/12 04:57:02;;;;;;;;;;;15.10;99.90;;;;;;5076927;28;19924;-60
2022/08/12 04:59:29;;;;;;;;;;;15.10;99.90;;;;;;5089384;28;19989;-59
2022/08/12 05:01:56;;;;;;;;;;;15.20;99.90;;;;;;5075125;28;20446;-58
2022/08/12 05:04:24;;;;;;;;;;;15.20;99.90;;;;;;5082841;28;20361;-59
2022/08/12 05:06:50;;;;;;;;;;;15.30;99.90;;;;;;5083664;28;20382;-58
2022/08/12 05:09:15;;;;;;;;;;;15.30;99.90;;;;;;5085043;28;20006;-59
2022/08/12 05:11:41;;;;;;;;;;;15.40;99.90;;;;;;5089086;28;19924;-59
2022/08/12 05:14:07;;;;;;;;;;;15.50;99.90;;;;;;5094124;28;19923;-59
2022/08/12 05:16:34;;;;;;;;;;;15.50;99.90;;;;;;5081042;28;20423;-60
2022/08/12 05:18:59;;;;;;;;;;;15.60;99.90;;;;;;5084039;28;20342;-59
2022/08/12 05:21:25;;;;;;;;;;;15.70;99.90;;;;;;5079648;28;19925;-59
2022/08/12 05:23:50;;;;;;;;;;;15.80;99.90;;;;;;5082098;28;20351;-59
2022/08/12 05:26:16;;;;;;;;;;;15.80;99.90;;;;;;5084708;28;19928;-59
2022/08/12 05:28:41;;;;;;;;;;;16.00;99.90;;;;;;5090414;28;20023;-58
2022/08/12 05:31:07;;;;;;;;;;;16.00;99.90;;;;;;5086733;28;19994;-59
2022/08/12 05:33:39;;;;;;;;;;;16.10;99.90;;;;;;5079247;28;19920;-60
2022/08/12 05:36:11;;;;;;;;;;;16.20;99.90;;;;;;5085825;28;19943;-58
2022/08/12 05:38:55;;;;;;;;;;;16.30;99.90;;;;;;5083878;28;19920;-60
2022/08/12 05:41:28;;;;;;;;;;;16.30;99.90;;;;;;5084687;28;19935;-60
2022/08/12 05:43:56;;;;;;;;;;;16.50;99.90;;;;;;5082484;28;19978;-60
2022/08/12 05:46:22;;;;;;;;;;;16.60;99.90;;;;;;5084587;28;19974;-60
2022/08/12 05:48:48;;;;;;;;;;;16.70;99.90;;;;;;5087489;28;19924;-60
2022/08/12 05:51:14;;;;;;;;;;;16.80;99.90;;;;;;5079780;28;19935;-59
2022/08/12 05:53:40;;;;;;;;;;;16.90;99.90;;;;;;5087916;28;19920;-59
2022/08/12 05:56:17;;;;;;;;;;;17.10;99.90;;;;;;5069408;28;20011;-60
2022/08/12 05:58:42;;;;;;;;;;;17.30;99.90;;;;;;5085192;28;19931;-59
2022/08/12 06:01:08;;;;;;;;;;;17.40;99.90;;;;;;5084609;28;19928;-60
2022/08/12 06:03:33;;;;;;;;;;;17.60;99.90;;;;;;5082425;28;19974;-59
2022/08/12 06:05:59;;;;;;;;;;;17.70;99.90;;;;;;5084744;28;19928;-59
2022/08/12 06:08:24;;;;;;;;;;;17.90;99.90;;;;;;5085316;28;19932;-59
2022/08/12 06:10:50;;;;;;;;;;;18.10;99.90;;;;;;5085812;28;20007;-59
2022/08/12 06:13:17;;;;;;;;;;;18.20;99.90;;;;;;5088165;28;19951;-60
2022/08/12 06:15:42;;;;;;;;;;;18.40;99.90;;;;;;5080966;28;19920;-60
2022/08/12 06:18:09;;;;;;;;;;;18.50;99.90;;;;;;5089960;28;19924;-59
2022/08/12 06:20:34;;;;;;;;;;;18.70;99.90;;;;;;5088047;28;20586;-59
2022/08/12 06:23:00;;;;;;;;;;;18.90;99.90;;;;;;5095693;28;19928;-61
2022/08/12 06:25:27;;;;;;;;;;;19.10;99.70;;;;;;5099321;28;20327;-58
2022/08/12 06:27:54;;;;;;;;;;;19.30;99.20;;;;;;5084784;28;19924;-60
2022/08/12 06:30:20;;;;;;;;;;;19.50;98.50;;;;;;5085097;28;19920;-61
2022/08/12 06:32:46;;;;;;;;;;;19.70;98.00;;;;;;5098824;28;19928;-60
2022/08/12 06:35:12;;;;;;;;;;;19.90;97.70;;;;;;5091764;28;19920;-61
2022/08/12 06:37:51;;;;;;;;;;;20.20;97.10;;;;;;5103152;28;19970;-60
2022/08/12 06:42:46;;;;;;;;;;;20.40;96.50;;;;;;5096952;28;19926;-60
2022/08/12 06:43:06;;;;;;;;;;;20.60;95.10;;;;;;5089958;28;19959;-60
2022/08/12 06:45:32;;;;;;;;;;;20.80;94.80;;;;;;5095526;28;20375;-60
2022/08/12 06:48:05;;;;;;;;;;;21.00;93.90;;;;;;5091475;28;19924;-59
2022/08/12 06:50:30;;;;;;;;;;;21.20;93.50;;;;;;5094273;28;20027;-59
2022/08/12 06:52:56;;;;;;;;;;;21.40;93.30;;;;;;5097737;28;20006;-59
2022/08/12 06:55:24;;;;;;;;;;;21.60;92.90;;;;;;5095938;28;20375;-62
2022/08/12 06:57:53;;;;;;;;;;;21.80;91.70;;;;;;5096983;28;19977;-60
2022/08/12 07:00:21;;;;;;;;;;;22.00;92.30;;;;;;5090650;28;20276;-60
2022/08/12 07:02:46;;;;;;;;;;;22.30;91.40;;;;;;5089766;28;19974;-59
2022/08/12 07:05:12;;;;;;;;;;;22.40;91.00;;;;;;5089451;28;20014;-61
2022/08/12 07:07:40;;;;;;;;;;;22.60;90.30;;;;;;5094794;28;20283;-59
2022/08/12 07:10:06;;;;;;;;;;;22.90;90.00;;;;;;5096701;28;19927;-60
2022/08/12 07:12:31;;;;;;;;;;;23.00;89.90;;;;;;5102152;28;19919;-61
2022/08/12 07:14:57;;;;;;;;;;;23.10;89.40;;;;;;5097263;28;19968;-61
2022/08/12 07:17:23;;;;;;;;;;;23.30;88.90;;;;;;5094395;28;19928;-61
2022/08/12 07:19:50;;;;;;;;;;;23.50;86.90;;;;;;5090238;28;19927;-61
2022/08/12 07:22:16;;;;;;;;;;;23.70;85.50;;;;;;5091604;28;19931;-60
2022/08/12 07:24:42;;;;;;;;;;;23.90;85.20;;;;;;5093109;28;20011;-60
2022/08/12 07:27:07;;;;;;;;;;;24.10;84.40;;;;;;5087740;28;20348;-61
2022/08/12 07:29:33;;;;;;;;;;;24.20;83.60;;;;;;5091750;28;19942;-60
2022/08/12 07:31:59;;;;;;;;;;;24.40;81.30;;;;;;5091241;28;19950;-60
2022/08/12 07:34:28;;;;;;;;;;;24.70;81.30;;;;;;5121722;27;19920;-61
2022/08/12 07:36:53;;;;;;;;;;;24.80;80.20;;;;;;5087945;28;19938;-61
2022/08/12 07:39:19;;;;;;;;;;;24.90;78.50;;;;;;5085200;28;19981;-60
2022/08/12 07:41:44;;;;;;;;;;;25.10;77.10;;;;;;5089589;28;19924;-62
2022/08/12 07:44:12;;;;;;;;;;;25.30;77.30;;;;;;5091583;28;19920;-60
2022/08/12 07:46:39;;;;;;;;;;;25.60;77.20;;;;;;5088948;28;19977;-61
2022/08/12 07:49:06;;;;;;;;;;;25.80;77.00;;;;;;5087890;28;19920;-60
2022/08/12 07:51:32;;;;;;;;;;;25.80;74.00;;;;;;5083390;28;20295;-62
2022/08/12 07:53:58;;;;;;;;;;;26.10;73.40;;;;;;5101630;28;19924;-60
2022/08/12 07:56:24;;;;;;;;;;;26.40;73.00;;;;;;5089224;28;19935;-61
2022/08/12 07:58:50;;;;;;;;;;;26.60;71.20;;;;;;5089912;28;20260;-60
2022/08/12 08:01:18;;;;;;;;;;;26.80;71.40;;;;;;5083747;28;19928;-62
2022/08/12 08:06:30;;;;;;;;;;;27.40;69.70;;;;;;5076463;28;19928;-60
2022/08/12 08:08:56;;;;;;;;;;;27.60;65.50;;;;;;5085334;28;19942;-61
2022/08/12 08:14:06;;;;;;;;;;;28.00;63.90;;;;;;5084872;28;20283;-63
2022/08/12 08:16:32;;;;;;;;;;;28.20;63.00;;;;;;5086647;28;19926;-61
2022/08/12 08:18:58;;;;;;;;;;;28.30;63.50;;;;;;5117386;27;20256;-62
2022/08/12 08:21:31;;;;;;;;;;;28.60;60.70;;;;;;5084973;28;19970;-60
2022/08/12 08:24:15;;;;;;;;;;;28.80;61.10;;;;;;5089914;28;19920;-61
2022/08/12 08:26:49;;;;;;;;;;;29.10;59.70;;;;;;5087296;28;19965;-62
2022/08/12 08:29:16;;;;;;;;;;;29.20;58.80;;;;;;5085228;28;19924;-61
2022/08/12 08:31:44;;;;;;;;;;;29.50;58.00;;;;;;5085609;28;19927;-61
2022/08/12 08:34:10;;;;;;;;;;;29.80;56.80;;;;;;5085252;28;19931;-61
2022/08/12 08:36:36;;;;;;;;;;;30.00;57.00;;;;;;5119016;27;19924;-60
2022/08/12 08:39:03;;;;;;;;;;;30.40;54.80;;;;;;5083925;28;19923;-60
2022/08/12 08:44:12;;;;;;;;;;;31.10;54.60;;;;;;5090697;28;19919;-59
2022/08/12 08:46:39;;;;;;;;;;;31.50;52.20;;;;;;5088040;28;19923;-59
2022/08/12 08:49:04;;;;;;;;;;;31.50;51.80;;;;;;5088811;28;19934;-59
2022/08/12 08:51:30;;;;;;;;;;;31.80;49.20;;;;;;5083855;28;19920;-61
2022/08/12 08:53:55;;;;;;;;;;;32.10;49.80;;;;;;5090576;28;19930;-61
2022/08/12 08:56:21;;;;;;;;;;;32.70;49.50;;;;;;5091731;28;20372;-60
2022/08/12 08:58:47;;;;;;;;;;;33.00;49.00;;;;;;5083502;28;20260;-61
2022/08/12 09:01:20;;;;;;;;;;;33.10;46.90;;;;;;5121363;27;19928;-61
2022/08/12 09:03:46;;;;;;;;;;;33.50;47.20;;;;;;5087332;28;19927;-61
2022/08/12 09:06:14;;;;;;;;;;;34.00;46.00;;;;;;5084737;28;19928;-61
2022/08/12 09:08:40;;;;;;;;;;;34.50;47.20;;;;;;5087661;28;19931;-62
2022/08/12 09:13:50;;;;;;;;;;;34.50;44.30;;;;;;5093463;28;19924;-60
2022/08/12 09:16:16;;;;;;;;;;;35.00;42.60;;;;;;5087437;28;20501;-61
2022/08/12 09:18:42;;;;;;;;;;;35.00;41.30;;;;;;5120806;28;20042;-61
2022/08/12 09:21:08;;;;;;;;;;;35.00;42.30;;;;;;5081897;28;20065;-61
2022/08/12 09:23:35;;;;;;;;;;;35.00;42.60;;;;;;5090150;28;19920;-60
2022/08/12 09:26:01;;;;;;;;;;;35.30;41.80;;;;;;5086538;28;19936;-61
2022/08/12 09:28:31;;;;;;;;;;;34.80;41.50;;;;;;5087844;28;20296;-62
2022/08/12 09:30:57;;;;;;;;;;;34.30;41.50;;;;;;5081925;28;19927;-61
2022/08/12 09:36:07;;;;;;;;;;;33.00;42.00;;;;;;5083909;28;19920;-60
2022/08/12 09:38:33;;;;;;;;;;;32.90;44.20;;;;;;5086727;28;20497;-60
2022/08/12 09:40:58;;;;;;;;;;;32.90;43.00;;;;;;5086168;28;19985;-60
2022/08/12 09:46:14;;;;;;;;;;;33.20;43.40;;;;;;5088524;28;19920;-61
2022/08/12 09:48:39;;;;;;;;;;;33.20;42.10;;;;;;5090369;28;19974;-60
2022/08/12 09:51:07;;;;;;;;;;;33.10;42.20;;;;;;5087404;28;20332;-60
2022/08/12 09:53:33;;;;;;;;;;;32.80;40.30;;;;;;5120762;27;19963;-60
2022/08/12 09:55:58;;;;;;;;;;;32.30;39.90;;;;;;5093165;28;19934;-61
2022/08/12 09:58:27;;;;;;;;;;;32.50;41.90;;;;;;5092469;28;19924;-59
2022/08/12 10:01:03;;;;;;;;;;;32.00;37.50;;;;;;5093986;28;19924;-59
2022/08/12 10:03:30;;;;;;;;;;;31.80;39.60;;;;;;5088503;28;19924;-60
2022/08/12 10:05:55;;;;;;;;;;;31.80;40.20;;;;;;5087002;28;19924;-61
2022/08/12 10:08:22;;;;;;;;;;;31.80;39.40;;;;;;5090748;28;19924;-59
2022/08/12 10:13:42;;;;;;;;;;;32.40;37.30;;;;;;5082361;28;19920;-60
2022/08/12 10:16:12;;;;;;;;;;;33.20;37.60;;;;;;5091674;28;19924;-60
2022/08/12 10:18:40;;;;;;;;;;;33.10;36.60;;;;;;5091454;28;19924;-61
2022/08/12 10:21:10;;;;;;;;;;;32.60;35.70;;;;;;5093965;28;19920;-59
2022/08/12 10:23:37;;;;;;;;;;;32.20;37.60;;;;;;5090205;28;19920;-60
2022/08/12 10:31:31;;;;;;;;;;;32.10;37.20;;;;;;5094693;28;19975;-60
2022/08/12 10:33:56;;;;;;;;;;;31.90;37.40;;;;;;5081810;28;20347;-60
2022/08/12 10:36:23;;;;;;;;;;;31.60;37.50;;;;;;5087881;28;20006;-61
2022/08/12 10:38:49;;;;;;;;;;;31.30;37.40;;;;;;5088897;28;20371;-60
2022/08/12 10:44:01;;;;;;;;;;;31.40;38.50;;;;;;5093134;28;19924;-60
2022/08/12 10:46:27;;;;;;;;;;;31.30;38.00;;;;;;5086841;28;19924;-62
2022/08/12 10:48:52;;;;;;;;;;;31.00;37.30;;;;;;5082235;28;19951;-60
2022/08/12 10:51:18;;;;;;;;;;;31.00;37.30;;;;;;5085029;28;19924;-60
2022/08/12 10:53:47;;;;;;;;;;;30.90;38.00;;;;;;5082761;28;19963;-61
2022/08/12 10:56:14;;;;;;;;;;;30.80;37.40;;;;;;5083753;28;19977;-59
2022/08/12 10:58:39;;;;;;;;;;;30.50;37.30;;;;;;5081465;28;19928;-62
2022/08/12 11:01:05;;;;;;;;;;;30.50;36.90;;;;;;5090927;28;19927;-60
2022/08/12 11:03:35;;;;;;;;;;;30.50;37.90;;;;;;5090696;28;20004;-61
2022/08/12 11:06:08;;;;;;;;;;;30.50;36.90;;;;;;5080791;28;19981;-60
2022/08/12 11:08:36;;;;;;;;;;;30.60;36.40;;;;;;5083164;28;19920;-62
2022/08/12 11:11:04;;;;;;;;;;;30.60;35.20;;;;;;5078219;28;19927;-60
2022/08/12 11:13:30;;;;;;;;;;;30.40;36.40;;;;;;5074923;28;20006;-59
2022/08/12 11:15:55;;;;;;;;;;;30.40;36.40;;;;;;5078299;28;19928;-60
2022/08/12 11:18:24;;;;;;;;;;;30.40;36.60;;;;;;5076321;28;19931;-60
2022/08/12 11:20:49;;;;;;;;;;;30.60;37.30;;;;;;5081567;28;19935;-61
2022/08/12 11:23:15;;;;;;;;;;;30.70;36.20;;;;;;5089775;28;19928;-60
2022/08/12 11:25:44;;;;;;;;;;;30.60;37.00;;;;;;5087469;28;19923;-61
2022/08/12 11:28:10;;;;;;;;;;;30.70;36.20;;;;;;5088124;28;19934;-61
2022/08/12 11:30:35;;;;;;;;;;;30.80;37.90;;;;;;5090524;28;19920;-60
2022/08/12 11:33:01;;;;;;;;;;;31.00;38.30;;;;;;5090071;28;20659;-60
2022/08/12 11:35:26;;;;;;;;;;;30.90;37.60;;;;;;5085311;28;19924;-61
2022/08/12 11:37:52;;;;;;;;;;;30.90;37.10;;;;;;5088379;28;19924;-60
2022/08/12 11:40:18;;;;;;;;;;;30.90;36.30;;;;;;5082598;28;19924;-61
2022/08/12 11:42:43;;;;;;;;;;;30.80;36.80;;;;;;5084913;28;19977;-61
2022/08/12 11:45:09;;;;;;;;;;;30.70;36.60;;;;;;5088024;28;19924;-60
2022/08/12 11:47:35;;;;;;;;;;;30.50;36.70;;;;;;5091251;28;19920;-60
2022/08/12 11:50:00;;;;;;;;;;;30.50;37.20;;;;;;5086464;28;19997;-61
2022/08/12 11:52:26;;;;;;;;;;;30.60;37.50;;;;;;5085896;28;19928;-61
2022/08/12 11:54:51;;;;;;;;;;;30.80;36.90;;;;;;5091854;28;19928;-61
2022/08/12 11:57:17;;;;;;;;;;;30.70;36.90;;;;;;5090343;28;19920;-62
2022/08/12 11:59:42;;;;;;;;;;;30.70;37.20;;;;;;5090204;28;20057;-62
2022/08/12 12:02:09;;;;;;;;;;;30.70;36.90;;;;;;5088209;28;21207;-62
2022/08/12 12:04:35;;;;;;;;;;;30.70;36.80;;;;;;5086095;28;19924;-61
2022/08/12 12:07:00;;;;;;;;;;;30.80;36.50;;;;;;5088862;28;19924;-62
2022/08/12 12:09:26;;;;;;;;;;;30.90;36.40;;;;;;5085454;28;20295;-60
2022/08/12 12:11:52;;;;;;;;;;;30.90;37.10;;;;;;5090827;28;19923;-60
2022/08/12 12:14:17;;;;;;;;;;;31.10;37.70;;;;;;5084495;28;19928;-61
2022/08/12 12:16:43;;;;;;;;;;;31.50;37.60;;;;;;5085923;28;19920;-61
2022/08/12 12:19:08;;;;;;;;;;;31.60;36.90;;;;;;5086743;28;20360;-60
2022/08/12 12:21:34;;;;;;;;;;;31.80;37.00;;;;;;5089676;28;20635;-60
2022/08/12 12:23:59;;;;;;;;;;;31.70;35.20;;;;;;5088401;28;20379;-60
2022/08/12 12:26:25;;;;;;;;;;;31.40;35.80;;;;;;5089795;28;19967;-60
2022/08/12 12:28:50;;;;;;;;;;;31.40;35.90;;;;;;5089150;28;19970;-61
2022/08/12 12:31:16;;;;;;;;;;;31.70;36.50;;;;;;5091133;28;20046;-60
2022/08/12 12:33:41;;;;;;;;;;;31.80;35.50;;;;;;5088623;28;19931;-61
2022/08/12 12:36:07;;;;;;;;;;;32.00;36.00;;;;;;5112318;27;19946;-60
2022/08/12 12:38:33;;;;;;;;;;;32.10;35.70;;;;;;5083761;28;19921;-61
2022/08/12 12:40:58;;;;;;;;;;;32.00;35.20;;;;;;5085661;28;20451;-60
2022/08/12 12:43:24;;;;;;;;;;;32.30;35.90;;;;;;5088257;28;20527;-61
2022/08/12 12:45:49;;;;;;;;;;;32.50;35.50;;;;;;5089169;28;19920;-61
2022/08/12 12:48:16;;;;;;;;;;;32.80;35.60;;;;;;5090162;28;19928;-61
2022/08/12 12:51:37;;;;;;;;;;;33.40;34.30;;;;;;5081729;28;19935;-61
2022/08/12 12:53:42;;;;;;;;;;;34.20;34.50;;;;;;5080654;28;19920;-61
2022/08/12 12:56:15;;;;;;;;;;;36.10;32.70;;;;;;5090677;28;20277;-61
2022/08/12 12:58:41;;;;;;;;;;;38.10;31.80;;;;;;5080766;28;19927;-61
2022/08/12 13:01:07;;;;;;;;;;;39.00;29.40;;;;;;5087313;28;19974;-62
2022/08/12 13:03:34;;;;;;;;;;;39.60;28.90;;;;;;5085321;28;19955;-61
2022/08/12 13:06:00;;;;;;;;;;;39.70;29.90;;;;;;5083812;28;19924;-62
2022/08/12 13:08:26;;;;;;;;;;;39.40;29.30;;;;;;5067741;28;19931;-61
2022/08/12 13:10:53;;;;;;;;;;;38.80;28.90;;;;;;5084448;28;19931;-61
2022/08/12 13:13:19;;;;;;;;;;;38.90;28.30;;;;;;5089253;28;20469;-62
2022/08/12 13:15:47;;;;;;;;;;;39.40;28.30;;;;;;5088594;28;19920;-61
2022/08/12 13:18:14;;;;;;;;;;;40.20;28.20;;;;;;5088129;28;19974;-62
2022/08/12 13:20:42;;;;;;;;;;;41.40;28.40;;;;;;5088998;28;19942;-63
2022/08/12 13:23:08;;;;;;;;;;;42.40;27.70;;;;;;5081499;28;19988;-62
2022/08/12 13:25:33;;;;;;;;;;;42.80;27.40;;;;;;5095384;28;19927;-63
2022/08/12 13:27:59;;;;;;;;;;;43.50;26.50;;;;;;5092189;28;19924;-62
2022/08/12 13:30:24;;;;;;;;;;;44.20;26.20;;;;;;5091775;28;19971;-62
2022/08/12 13:32:57;;;;;;;;;;;44.50;26.90;;;;;;5093267;28;19928;-61
2022/08/12 13:35:24;;;;;;;;;;;45.10;26.30;;;;;;5086618;28;20278;-60
2022/08/12 13:37:53;;;;;;;;;;;45.10;25.60;;;;;;5093552;28;19924;-61
2022/08/12 13:40:19;;;;;;;;;;;44.90;24.90;;;;;;5095230;28;19920;-61
2022/08/12 13:42:48;;;;;;;;;;;44.80;25.30;;;;;;5119607;27;19944;-60
2022/08/12 13:45:14;;;;;;;;;;;44.70;25.30;;;;;;5089538;28;20575;-61
2022/08/12 13:48:12;;;;;;;;;;;44.70;24.70;;;;;;5094695;28;19959;-60
2022/08/12 13:50:39;;;;;;;;;;;44.00;25.60;;;;;;5047151;28;19935;-60
2022/08/12 13:53:16;;;;;;;;;;;43.60;25.60;;;;;;5090034;28;20015;-60
2022/08/12 13:55:44;;;;;;;;;;;43.60;26.00;;;;;;5090303;28;19966;-62
2022/08/12 13:58:19;;;;;;;;;;;43.80;25.60;;;;;;5091244;28;20022;-62
2022/08/12 14:00:50;;;;;;;;;;;43.90;25.70;;;;;;5085081;28;19928;-62
2022/08/12 14:03:17;;;;;;;;;;;43.80;25.90;;;;;;5116207;27;20928;-61
2022/08/12 14:05:43;;;;;;;;;;;44.40;25.80;;;;;;5092960;28;19924;-63
2022/08/12 14:08:10;;;;;;;;;;;44.80;25.20;;;;;;5091760;28;20257;-63
2022/08/12 14:10:37;;;;;;;;;;;43.70;25.50;;;;;;5093256;28;19998;-62
2022/08/12 14:13:07;;;;;;;;;;;42.60;25.60;;;;;;5094121;28;19920;-62
2022/08/12 14:15:37;;;;;;;;;;;42.40;25.50;;;;;;5093402;28;19920;-62
2022/08/12 14:18:05;;;;;;;;;;;42.80;26.60;;;;;;5090096;28;20390;-62
2022/08/12 14:20:31;;;;;;;;;;;43.30;25.60;;;;;;5090385;28;19928;-62
2022/08/12 14:22:58;;;;;;;;;;;43.20;26.00;;;;;;5093540;28;19931;-62
2022/08/12 14:25:25;;;;;;;;;;;43.70;25.60;;;;;;5092992;28;19935;-62
2022/08/12 14:27:53;;;;;;;;;;;43.90;25.80;;;;;;5092745;28;20039;-62
2022/08/12 14:30:19;;;;;;;;;;;43.80;25.50;;;;;;5091785;28;19967;-61
2022/08/12 14:32:44;;;;;;;;;;;43.10;25.60;;;;;;5093051;28;20352;-62
2022/08/12 14:35:10;;;;;;;;;;;43.40;25.80;;;;;;5107370;27;19927;-62
2022/08/12 14:37:36;;;;;;;;;;;43.80;26.40;;;;;;5092594;28;20723;-62
2022/08/12 14:40:02;;;;;;;;;;;43.20;25.40;;;;;;5092459;28;19962;-62
2022/08/12 14:42:28;;;;;;;;;;;43.20;25.90;;;;;;5095331;28;20002;-62
2022/08/12 14:44:56;;;;;;;;;;;41.80;26.00;;;;;;5092954;28;20011;-61
2022/08/12 14:47:22;;;;;;;;;;;39.90;26.30;;;;;;5089204;28;20003;-62
2022/08/12 14:49:47;;;;;;;;;;;38.40;27.70;;;;;;5090232;28;20035;-61
2022/08/12 14:52:13;;;;;;;;;;;37.00;28.30;;;;;;5090312;28;19927;-62
2022/08/12 14:54:39;;;;;;;;;;;36.10;29.20;;;;;;5088626;28;19932;-61
2022/08/12 14:57:05;;;;;;;;;;;34.80;29.80;;;;;;5083818;28;19947;-61
2022/08/12 15:02:19;;;;;;;;;;;33.60;31.90;;;;;;5091626;28;20022;-62
2022/08/12 15:04:45;;;;;;;;;;;33.00;32.40;;;;;;5092372;28;19927;-61
2022/08/12 15:07:12;;;;;;;;;;;32.70;33.20;;;;;;5087815;28;19928;-62
2022/08/12 15:09:38;;;;;;;;;;;32.30;33.70;;;;;;5123081;27;19924;-61
2022/08/12 15:12:10;;;;;;;;;;;32.00;34.00;;;;;;5089519;28;20004;-61
2022/08/12 15:14:37;;;;;;;;;;;31.80;34.60;;;;;;5091773;28;19978;-62
2022/08/12 15:17:05;;;;;;;;;;;31.60;35.30;;;;;;5085126;28;19927;-62
2022/08/12 15:19:31;;;;;;;;;;;31.40;35.20;;;;;;5086664;28;19920;-62
2022/08/12 15:21:56;;;;;;;;;;;31.20;35.10;;;;;;5086246;28;20685;-63
2022/08/12 15:24:22;;;;;;;;;;;31.10;35.30;;;;;;5092830;28;19923;-61
2022/08/12 15:26:47;;;;;;;;;;;31.00;35.80;;;;;;5101216;28;19927;-62
2022/08/12 15:29:13;;;;;;;;;;;30.90;36.20;;;;;;5092583;28;19942;-61
2022/08/12 15:31:38;;;;;;;;;;;30.70;35.90;;;;;;5090392;28;19977;-61
2022/08/12 15:34:05;;;;;;;;;;;30.70;36.60;;;;;;5090902;28;19958;-61
2022/08/12 15:36:30;;;;;;;;;;;30.60;36.30;;;;;;5090656;28;19983;-61
2022/08/12 15:38:56;;;;;;;;;;;30.50;36.20;;;;;;5094261;28;20331;-61
2022/08/12 15:41:23;;;;;;;;;;;30.50;37.20;;;;;;5090196;28;20534;-63
2022/08/12 15:43:49;;;;;;;;;;;30.40;36.50;;;;;;5096828;28;19923;-62
2022/08/12 15:46:14;;;;;;;;;;;30.30;36.80;;;;;;5090400;28;19920;-62
2022/08/12 15:48:41;;;;;;;;;;;30.20;37.30;;;;;;5102774;28;19924;-63
2022/08/12 15:51:07;;;;;;;;;;;30.10;37.30;;;;;;5087061;28;19927;-61
2022/08/12 15:56:16;;;;;;;;;;;30.00;37.40;;;;;;5094119;28;19938;-62
2022/08/12 15:58:42;;;;;;;;;;;29.90;37.30;;;;;;5090405;28;19920;-61
2022/08/12 16:01:10;;;;;;;;;;;29.90;37.60;;;;;;5084648;28;19920;-62
2022/08/12 16:03:35;;;;;;;;;;;29.90;37.40;;;;;;5085426;28;20322;-62
2022/08/12 16:06:01;;;;;;;;;;;29.80;37.80;;;;;;5079675;28;19920;-61
2022/08/12 16:08:28;;;;;;;;;;;29.80;37.70;;;;;;5087395;28;19920;-61
2022/08/12 16:10:55;;;;;;;;;;;29.70;38.00;;;;;;5099795;28;20010;-62
2022/08/12 16:13:21;;;;;;;;;;;29.70;38.70;;;;;;5092617;28;19953;-63
2022/08/12 16:15:46;;;;;;;;;;;29.70;38.20;;;;;;5096406;28;19920;-59
2022/08/12 16:18:12;;;;;;;;;;;29.70;38.50;;;;;;5094308;28;19924;-61